createdAt,value
2023-03-20T00:02:09.657Z,9.82
2023-03-20T00:04:39.074Z,9.63
2023-03-20T00:07:10.677Z,9.54
2023-03-20T00:09:39.346Z,9.68
2023-03-20T00:12:11.157Z,9.87
2023-03-20T00:14:39.710Z,9.58
2023-03-20T00:17:11.772Z,9.97
2023-03-20T00:19:40.330Z,9.66
2023-03-20T00:22:10.251Z,9.88
2023-03-20T00:24:38.884Z,9.49
2023-03-20T00:27:10.988Z,9.76
2023-03-20T00:29:39.470Z,9.35
2023-03-20T00:32:13.227Z,9.79
2023-03-20T00:34:42.079Z,9.46
2023-03-20T00:37:11.822Z,9.66
2023-03-20T00:39:40.461Z,9.46
2023-03-20T00:42:15.000Z,9.76
2023-03-20T00:44:49.809Z,9.82
2023-03-20T00:47:20.081Z,9.73
2023-03-20T00:49:50.809Z,9.68
2023-03-20T00:52:19.602Z,9.49
2023-03-20T00:54:48.227Z,9.48
2023-03-20T00:57:21.682Z,9.86
2023-03-20T00:59:53.284Z,9.74
2023-03-20T01:02:23.215Z,9.75
2023-03-20T01:04:52.495Z,9.43
2023-03-20T01:07:20.806Z,9.57
2023-03-20T01:09:49.350Z,9.50
2023-03-20T01:12:18.885Z,9.94
2023-03-20T01:14:47.844Z,9.80
2023-03-20T01:17:19.575Z,10.11
2023-03-20T01:19:48.657Z,9.76
2023-03-20T01:22:18.048Z,9.75
2023-03-20T01:24:47.428Z,9.92
2023-03-20T01:27:17.218Z,9.89
2023-03-20T01:29:47.758Z,9.96
2023-03-20T01:32:17.983Z,9.89
2023-03-20T01:34:47.736Z,9.66
2023-03-20T01:37:20.299Z,9.99
2023-03-20T01:39:48.948Z,9.69
2023-03-20T01:42:18.308Z,9.85
2023-03-20T01:44:48.752Z,10.07
2023-03-20T01:47:19.238Z,9.88
2023-03-20T01:50:22.602Z,10.28
2023-03-20T01:52:52.960Z,9.93
2023-03-20T01:55:22.182Z,9.93
2023-03-20T01:57:52.282Z,10.07
2023-03-20T02:00:24.049Z,10.14
2023-03-20T02:02:52.080Z,10.60
2023-03-20T02:05:22.380Z,10.06
2023-03-20T02:07:55.812Z,10.14
2023-03-20T02:10:24.440Z,9.86
2023-03-20T02:12:53.572Z,10.00
2023-03-20T02:15:23.400Z,10.13
2023-03-20T02:17:51.598Z,9.92
2023-03-20T02:20:31.835Z,10.37
2023-03-20T02:23:53.510Z,10.40
2023-03-20T02:26:44.279Z,10.54
2023-03-20T02:30:01.371Z,10.38
2023-03-20T02:33:26.454Z,10.25
2023-03-20T02:36:43.414Z,10.31
2023-03-20T02:39:36.842Z,10.28
2023-03-20T02:42:11.375Z,10.01
2023-03-20T02:44:45.186Z,9.89
2023-03-20T02:47:16.567Z,9.77
2023-03-20T02:49:54.840Z,9.91
2023-03-20T02:52:28.013Z,9.80
2023-03-20T02:55:07.214Z,9.89
2023-03-20T02:57:43.070Z,9.76
2023-03-20T03:00:14.891Z,9.68
2023-03-20T03:02:44.358Z,10.06
2023-03-20T03:05:16.766Z,9.65
2023-03-20T03:07:47.092Z,9.63
2023-03-20T03:10:19.987Z,9.68
2023-03-20T03:12:49.314Z,9.49
2023-03-20T03:15:22.271Z,9.63
2023-03-20T03:17:50.755Z,9.36
2023-03-20T03:20:23.226Z,9.70
2023-03-20T03:22:51.928Z,9.52
2023-03-20T03:25:25.609Z,9.64
2023-03-20T03:28:02.404Z,9.66
2023-03-20T03:30:33.052Z,9.72
2023-03-20T03:33:11.178Z,9.90
2023-03-20T03:35:40.346Z,9.68
2023-03-20T03:38:24.320Z,10.01
2023-03-20T03:41:02.367Z,9.92
2023-03-20T03:43:33.390Z,9.87
2023-03-20T03:46:06.156Z,9.79
2023-03-20T03:48:37.216Z,9.78
2023-03-20T03:51:09.188Z,9.82
2023-03-20T03:53:41.367Z,9.89
2023-03-20T03:56:13.356Z,9.89
2023-03-20T03:58:43.756Z,9.79
2023-03-20T04:01:14.081Z,9.79
2023-03-20T04:03:44.245Z,9.69
2023-03-20T04:06:13.709Z,9.57
2023-03-20T04:08:42.337Z,9.42
2023-03-20T04:11:16.045Z,9.76
2023-03-20T04:13:44.293Z,9.34
2023-03-20T04:16:15.276Z,9.56
2023-03-20T04:18:43.751Z,9.35
2023-03-20T04:21:12.662Z,9.48
2023-03-20T04:23:40.897Z,9.35
2023-03-20T04:26:09.551Z,9.37
2023-03-20T04:28:39.298Z,9.61
2023-03-20T04:31:08.469Z,9.41
2023-03-20T04:33:36.717Z,9.31
2023-03-20T04:36:06.460Z,9.32
2023-03-20T04:38:34.896Z,9.16
2023-03-20T04:41:03.678Z,9.13
2023-03-20T04:43:31.998Z,9.15
2023-03-20T04:46:01.942Z,9.34
2023-03-20T04:48:30.448Z,9.08
2023-03-20T04:50:58.968Z,9.04
2023-03-20T04:53:27.385Z,8.95
2023-03-20T04:55:55.831Z,8.86
2023-03-20T04:58:24.116Z,8.78
2023-03-20T05:00:52.759Z,8.73
2023-03-20T05:03:24.033Z,8.85
2023-03-20T05:05:52.772Z,8.56
2023-03-20T05:08:21.231Z,8.63
2023-03-20T05:10:49.733Z,8.72
2023-03-20T05:13:17.933Z,8.65
2023-03-20T05:15:46.562Z,8.66
2023-03-20T05:18:14.792Z,8.58
2023-03-20T05:20:44.736Z,8.80
2023-03-20T05:23:13.024Z,8.64
2023-03-20T05:25:41.726Z,8.75
2023-03-20T05:28:09.989Z,8.71
2023-03-20T05:30:39.941Z,8.78
2023-03-20T05:33:08.466Z,8.92
2023-03-20T05:35:37.349Z,9.19
2023-03-20T05:38:07.245Z,9.69
2023-03-20T05:40:35.961Z,9.74
2023-03-20T05:43:05.798Z,9.95
2023-03-20T05:45:34.812Z,10.28
2023-03-20T05:48:03.458Z,10.67
2023-03-20T05:50:32.137Z,11.27
2023-03-20T05:53:01.014Z,11.82
2023-03-20T05:55:31.170Z,12.57
2023-03-20T05:57:59.396Z,12.84
2023-03-20T06:00:28.209Z,13.15
2023-03-20T06:02:57.244Z,13.54
2023-03-20T06:05:26.187Z,13.57
2023-03-20T06:07:54.578Z,14.03
2023-03-20T06:10:23.132Z,14.44
2023-03-20T06:12:52.859Z,14.74
2023-03-20T06:15:21.923Z,14.25
2023-03-20T06:17:50.516Z,14.03
2023-03-20T06:20:19.311Z,13.77
2023-03-20T06:22:47.853Z,13.55
2023-03-20T06:25:16.712Z,13.07
2023-03-20T06:27:45.226Z,12.83
2023-03-20T06:30:16.276Z,12.76
2023-03-20T06:32:44.692Z,12.42
2023-03-20T06:35:13.744Z,12.32
2023-03-20T06:37:42.312Z,12.16
2023-03-20T06:40:11.928Z,12.24
2023-03-20T06:42:40.143Z,11.99
2023-03-20T06:45:09.493Z,12.09
2023-03-20T06:47:39.091Z,12.08
2023-03-20T06:50:08.604Z,12.18
2023-03-20T06:52:36.878Z,12.15
2023-03-20T06:55:06.076Z,12.36
2023-03-20T06:57:34.670Z,12.42
2023-03-20T07:00:04.536Z,12.62
2023-03-20T07:02:33.514Z,12.90
2023-03-20T07:05:03.667Z,13.35
2023-03-20T07:07:32.706Z,13.34
2023-03-20T07:10:01.715Z,13.39
2023-03-20T07:12:29.982Z,13.33
2023-03-20T07:14:58.679Z,13.24
2023-03-20T07:17:27.176Z,12.96
2023-03-20T07:19:55.945Z,12.85
2023-03-20T07:22:27.307Z,13.07
2023-03-20T07:24:55.901Z,12.66
2023-03-20T07:27:24.239Z,12.46
2023-03-20T07:29:52.767Z,12.30
2023-03-20T07:32:21.185Z,12.11
2023-03-20T07:34:50.417Z,12.10
2023-03-20T07:37:18.851Z,12.17
2023-03-20T07:39:48.877Z,12.37
2023-03-20T07:42:17.819Z,12.07
2023-03-20T07:44:46.384Z,11.99
2023-03-20T07:47:14.744Z,11.93
2023-03-20T07:49:43.378Z,11.94
2023-03-20T07:52:11.798Z,11.82
2023-03-20T07:54:40.681Z,11.82
2023-03-20T07:57:10.334Z,12.06
2023-03-20T07:59:39.010Z,11.83
2023-03-20T08:02:07.364Z,11.83
2023-03-20T08:04:36.654Z,11.87
2023-03-20T08:07:05.073Z,11.99
2023-03-20T08:09:33.939Z,11.97
2023-03-20T08:12:02.327Z,12.00
2023-03-20T08:14:32.682Z,12.35
2023-03-20T08:17:13.829Z,12.32
2023-03-20T08:19:43.414Z,12.71
2023-03-20T08:22:11.682Z,13.19
2023-03-20T08:24:40.261Z,13.54
2023-03-20T08:27:08.612Z,13.94
2023-03-20T08:29:38.781Z,14.56
2023-03-20T08:32:07.652Z,14.54
2023-03-20T08:34:36.276Z,14.61
2023-03-20T08:37:04.922Z,14.75
2023-03-20T08:39:34.491Z,14.79
2023-03-20T08:42:03.165Z,14.92
2023-03-20T08:44:31.750Z,15.09
2023-03-20T08:47:01.401Z,15.21
2023-03-20T08:49:29.959Z,15.17
2023-03-20T08:51:58.305Z,15.54
2023-03-20T08:54:27.094Z,15.94
2023-03-20T08:56:55.358Z,16.11
2023-03-20T08:59:24.022Z,16.16
2023-03-20T09:01:52.269Z,16.46
2023-03-20T09:04:22.390Z,17.03
2023-03-20T09:06:51.799Z,17.52
2023-03-20T09:09:22.048Z,18.43
2023-03-20T09:11:50.694Z,18.89
2023-03-20T09:14:19.429Z,18.62
2023-03-20T09:16:47.830Z,18.77
2023-03-20T09:19:19.979Z,18.82
2023-03-20T09:21:49.710Z,18.90
2023-03-20T09:24:18.418Z,18.67
2023-03-20T09:26:46.750Z,19.13
2023-03-20T09:29:15.604Z,19.30
2023-03-20T09:31:43.938Z,19.18
2023-03-20T09:34:12.623Z,18.75
2023-03-20T09:36:40.919Z,18.21
2023-03-20T09:39:11.226Z,18.04
2023-03-20T09:41:53.225Z,17.75
2023-03-20T09:44:38.087Z,17.93
2023-03-20T09:47:19.675Z,17.76
2023-03-20T09:49:58.700Z,17.87
2023-03-20T09:52:31.612Z,17.76
2023-03-20T09:55:04.017Z,17.72
2023-03-20T09:57:37.233Z,17.70
2023-03-20T10:00:10.473Z,17.35
2023-03-20T10:02:43.446Z,16.95
2023-03-20T10:05:19.376Z,16.77
2023-03-20T10:07:47.924Z,16.20
2023-03-20T10:10:20.725Z,16.46
2023-03-20T10:12:56.300Z,16.66
2023-03-20T10:15:34.844Z,16.80
2023-03-20T10:18:08.435Z,16.79
2023-03-20T10:20:39.552Z,16.57
2023-03-20T10:23:09.368Z,16.67
2023-03-20T10:25:44.393Z,16.78
2023-03-20T10:28:14.210Z,16.69
2023-03-20T10:30:52.411Z,16.72
2023-03-20T10:33:28.396Z,16.45
2023-03-20T10:36:06.438Z,16.47
2023-03-20T10:38:39.778Z,16.33
2023-03-20T10:41:13.864Z,16.36
2023-03-20T10:43:43.516Z,16.24
2023-03-20T10:46:14.688Z,16.42
2023-03-20T10:48:46.096Z,16.77
2023-03-20T10:51:16.665Z,17.35
2023-03-20T10:53:48.509Z,19.12
2023-03-20T10:56:22.763Z,22.71
2023-03-20T10:58:55.938Z,26.28
2023-03-20T11:01:24.534Z,28.50
2023-03-20T11:03:52.918Z,30.12
2023-03-20T11:06:24.116Z,30.45
2023-03-20T11:08:54.388Z,29.58
2023-03-20T11:11:25.990Z,28.50
2023-03-20T11:13:54.483Z,26.27
2023-03-20T11:16:25.577Z,24.51
2023-03-20T11:18:55.161Z,23.05
2023-03-20T11:21:26.302Z,22.10
2023-03-20T11:23:54.590Z,21.78
2023-03-20T11:26:36.161Z,20.60
2023-03-20T11:29:07.507Z,19.85
2023-03-20T11:31:37.590Z,19.88
2023-03-20T11:34:21.536Z,21.97
2023-03-20T11:37:09.829Z,25.69
2023-03-20T11:39:41.388Z,27.53
2023-03-20T11:42:24.770Z,27.56
2023-03-20T11:44:59.355Z,26.39
2023-03-20T11:47:29.385Z,25.37
2023-03-20T11:50:00.091Z,24.91
2023-03-20T11:52:31.189Z,24.59
2023-03-20T11:55:00.927Z,24.45
2023-03-20T11:57:36.615Z,24.13
2023-03-20T12:00:16.844Z,23.67
2023-03-20T12:02:46.333Z,22.87
2023-03-20T12:05:30.092Z,22.95
2023-03-20T12:07:59.619Z,21.97
2023-03-20T12:10:32.108Z,21.41
2023-03-20T12:13:05.300Z,20.97
2023-03-20T12:15:35.995Z,20.54
2023-03-20T12:18:08.197Z,20.07
2023-03-20T12:20:39.692Z,19.71
2023-03-20T12:23:14.312Z,19.68
2023-03-20T12:25:49.447Z,19.66
2023-03-20T12:28:25.626Z,19.66
2023-03-20T12:31:05.966Z,19.35
2023-03-20T12:33:44.576Z,18.92
2023-03-20T12:36:16.640Z,18.54
2023-03-20T12:38:46.093Z,18.06
2023-03-20T12:41:17.064Z,17.99
2023-03-20T12:44:06.961Z,18.00
2023-03-20T12:46:42.276Z,17.79
2023-03-20T12:49:18.103Z,17.47
2023-03-20T12:51:53.761Z,17.21
2023-03-20T12:54:31.443Z,17.21
2023-03-20T12:57:07.369Z,17.39
2023-03-20T12:59:47.628Z,17.56
2023-03-20T13:02:28.333Z,17.63
2023-03-20T13:05:05.602Z,17.70
2023-03-20T13:07:46.632Z,17.89
2023-03-20T13:10:21.890Z,18.03
2023-03-20T13:13:05.693Z,18.17
2023-03-20T13:15:48.328Z,18.12
2023-03-20T13:18:21.155Z,18.14
2023-03-20T13:20:52.180Z,18.12
2023-03-20T13:23:27.584Z,18.20
2023-03-20T13:26:09.079Z,18.05
2023-03-20T13:28:42.608Z,17.70
2023-03-20T13:31:22.445Z,17.70
2023-03-20T13:33:55.046Z,17.69
2023-03-20T13:36:35.777Z,17.75
2023-03-20T13:39:07.792Z,17.58
2023-03-20T13:41:37.822Z,17.57
2023-03-20T13:44:07.520Z,17.57
2023-03-20T13:46:40.258Z,17.55
2023-03-20T13:49:15.433Z,17.55
2023-03-20T13:51:49.327Z,17.24
2023-03-20T13:54:40.162Z,17.26
2023-03-20T13:57:16.081Z,16.99
2023-03-20T14:00:00.708Z,17.06
2023-03-20T14:02:36.806Z,17.04
2023-03-20T14:05:07.750Z,16.94
2023-03-20T14:07:38.888Z,17.02
2023-03-20T14:10:35.334Z,17.31
2023-03-20T14:13:08.174Z,17.00
2023-03-20T14:15:44.326Z,16.68
2023-03-20T14:18:19.310Z,16.71
2023-03-20T14:20:56.467Z,16.75
2023-03-20T14:23:45.400Z,16.73
2023-03-20T14:26:25.834Z,16.96
2023-03-20T14:29:01.348Z,16.85
2023-03-20T14:31:42.530Z,16.81
2023-03-20T14:34:32.321Z,16.82
2023-03-20T14:37:06.115Z,16.39
2023-03-20T14:39:48.186Z,16.35
2023-03-20T14:42:37.760Z,16.48
2023-03-20T14:45:32.071Z,16.25
2023-03-20T14:48:13.129Z,16.07
2023-03-20T14:50:54.908Z,16.16
2023-03-20T14:53:27.425Z,15.77
2023-03-20T14:56:08.426Z,15.57
2023-03-20T14:58:59.428Z,15.24
2023-03-20T15:01:49.435Z,15.42
2023-03-20T15:04:37.412Z,14.96
2023-03-20T15:07:16.212Z,14.85
2023-03-20T15:09:47.458Z,14.69
2023-03-20T15:12:19.532Z,14.79
2023-03-20T15:14:57.203Z,14.88
2023-03-20T15:17:28.477Z,14.69
2023-03-20T15:20:06.674Z,14.96
2023-03-20T15:22:40.296Z,14.71
2023-03-20T15:25:22.217Z,14.87
2023-03-20T15:27:54.271Z,14.44
2023-03-20T15:30:26.190Z,14.50
2023-03-20T15:32:57.338Z,14.63
2023-03-20T15:35:28.120Z,14.69
2023-03-20T15:38:03.513Z,14.74
2023-03-20T15:40:47.639Z,14.74
2023-03-20T15:43:23.434Z,14.77
2023-03-20T15:46:17.381Z,14.85
2023-03-20T15:48:51.490Z,14.79
2023-03-20T15:51:28.916Z,14.73
2023-03-20T15:54:08.131Z,14.73
2023-03-20T15:56:43.060Z,14.53
2023-03-20T15:59:15.787Z,14.68
2023-03-20T16:01:54.215Z,14.82
2023-03-20T16:04:33.840Z,14.50
2023-03-20T16:07:05.697Z,14.37
2023-03-20T16:09:44.681Z,14.84
2023-03-20T16:12:17.658Z,14.73
2023-03-20T16:14:53.618Z,14.30
2023-03-20T16:17:24.982Z,14.51
2023-03-20T16:19:55.083Z,14.36
2023-03-20T16:22:27.060Z,14.58
2023-03-20T16:24:59.047Z,14.57
2023-03-20T16:27:30.147Z,14.49
2023-03-20T16:29:59.076Z,14.97
2023-03-20T16:32:35.855Z,14.52
2023-03-20T16:35:07.646Z,14.21
2023-03-20T16:37:39.653Z,14.47
2023-03-20T16:40:18.241Z,14.31
2023-03-20T16:42:47.455Z,14.24
2023-03-20T16:45:24.223Z,14.16
2023-03-20T16:48:09.660Z,14.17
2023-03-20T16:50:40.900Z,14.04
2023-03-20T16:53:11.714Z,14.02
2023-03-20T16:55:45.020Z,13.93
2023-03-20T16:58:19.536Z,13.83
2023-03-20T17:00:51.128Z,13.74
2023-03-20T17:03:30.534Z,13.64
2023-03-20T17:06:02.884Z,13.60
2023-03-20T17:08:39.278Z,13.52
2023-03-20T17:11:13.629Z,13.29
2023-03-20T17:13:43.394Z,13.26
2023-03-20T17:16:21.743Z,13.27
2023-03-20T17:19:02.640Z,13.25
2023-03-20T17:21:31.950Z,13.00
2023-03-20T17:24:00.882Z,12.96
2023-03-20T17:26:33.714Z,12.94
2023-03-20T17:29:02.641Z,12.91
2023-03-20T17:31:32.340Z,12.89
2023-03-20T17:34:01.274Z,12.84
2023-03-20T17:36:38.934Z,12.81
2023-03-20T17:39:07.689Z,12.83
2023-03-20T17:41:38.117Z,12.86
2023-03-20T17:44:07.288Z,12.69
2023-03-20T17:46:53.820Z,12.66
2023-03-20T17:49:28.573Z,12.62
2023-03-20T17:52:00.385Z,12.64
2023-03-20T17:54:28.981Z,12.65
2023-03-20T17:56:59.384Z,12.60
2023-03-20T17:59:31.353Z,12.68
2023-03-20T18:04:39.119Z,12.93
2023-03-20T18:07:09.499Z,13.26
2023-03-20T18:09:38.335Z,13.54
2023-03-20T18:12:13.613Z,13.57
2023-03-20T18:14:45.326Z,13.53
2023-03-20T18:17:15.805Z,13.49
2023-03-20T18:19:45.867Z,13.38
2023-03-20T18:22:34.618Z,13.31
2023-03-20T18:25:05.171Z,13.35
2023-03-20T18:27:36.303Z,13.45
2023-03-20T18:30:12.738Z,13.39
2023-03-20T18:32:43.116Z,13.35
2023-03-20T18:35:12.563Z,13.31
2023-03-20T18:37:41.378Z,13.27
2023-03-20T18:40:12.618Z,13.06
2023-03-20T18:42:42.411Z,13.16
2023-03-20T18:45:11.016Z,13.17
2023-03-20T18:47:39.640Z,13.16
2023-03-20T18:50:08.432Z,13.08
2023-03-20T18:52:38.516Z,13.11
2023-03-20T18:55:06.716Z,13.15
2023-03-20T18:57:36.670Z,13.22
2023-03-20T19:00:07.594Z,13.20
2023-03-20T19:02:36.016Z,13.08
2023-03-20T19:05:04.535Z,13.08
2023-03-20T19:07:32.883Z,13.04
2023-03-20T19:10:00.851Z,13.06
2023-03-20T19:12:29.144Z,13.16
2023-03-20T19:14:57.257Z,13.12
2023-03-20T19:17:26.987Z,13.11
2023-03-20T19:19:55.002Z,13.02
2023-03-20T19:22:29.676Z,13.04
2023-03-20T19:24:58.011Z,13.09
2023-03-20T19:27:26.314Z,12.89
2023-03-20T19:29:57.196Z,12.72
2023-03-20T19:32:26.961Z,12.67
2023-03-20T19:35:40.919Z,12.69
2023-03-20T19:37:43.699Z,12.83
2023-03-20T19:40:12.886Z,12.90
2023-03-20T19:43:01.660Z,12.93
2023-03-20T19:45:29.873Z,13.00
2023-03-20T19:47:59.885Z,12.99
2023-03-20T19:50:30.340Z,13.05
2023-03-20T19:52:59.175Z,13.09
2023-03-20T19:55:27.882Z,13.14
2023-03-20T19:57:57.274Z,13.17
2023-03-20T20:00:56.396Z,13.19
2023-03-20T20:03:18.219Z,13.11
2023-03-20T20:05:46.530Z,13.07
2023-03-20T20:08:28.315Z,13.05
2023-03-20T20:10:58.107Z,12.96
2023-03-20T20:13:27.797Z,12.85
2023-03-20T20:15:55.818Z,12.99
2023-03-20T20:18:26.259Z,12.97
2023-03-20T20:21:39.451Z,12.87
2023-03-20T20:23:44.127Z,12.98
2023-03-20T20:26:12.135Z,12.83
2023-03-20T20:28:40.432Z,12.77
2023-03-20T20:31:08.585Z,12.83
2023-03-20T20:33:39.549Z,12.82
2023-03-20T20:37:01.865Z,12.84
2023-03-20T20:39:00.209Z,12.80
2023-03-20T20:41:29.389Z,12.72
2023-03-20T20:44:15.294Z,12.61
2023-03-20T20:46:44.705Z,12.66
2023-03-20T20:49:19.537Z,12.66
2023-03-20T20:51:48.405Z,12.66
2023-03-20T20:54:16.584Z,12.70
2023-03-20T20:56:44.954Z,12.70
2023-03-20T20:59:13.171Z,12.60
2023-03-20T21:01:41.719Z,12.71
2023-03-20T21:04:11.522Z,12.64
2023-03-20T21:07:08.051Z,12.49
2023-03-20T21:09:29.820Z,12.41
2023-03-20T21:11:58.125Z,12.32
2023-03-20T21:14:26.355Z,12.33
2023-03-20T21:16:57.314Z,12.35
2023-03-20T21:19:25.724Z,12.34
2023-03-20T21:21:55.604Z,12.54
2023-03-20T21:24:32.032Z,12.64
2023-03-20T21:27:01.393Z,12.63
2023-03-20T21:29:29.601Z,12.49
2023-03-20T21:31:58.032Z,12.42
2023-03-20T21:34:26.203Z,12.38
2023-03-20T21:36:57.263Z,12.25
2023-03-20T21:39:25.492Z,12.27
2023-03-20T21:41:53.711Z,12.10
2023-03-20T21:45:01.035Z,11.99
2023-03-20T21:47:58.617Z,11.88
2023-03-20T21:50:41.808Z,11.92
2023-03-20T21:53:34.177Z,11.97
2023-03-20T21:59:03.610Z,11.88
2023-03-20T22:04:54.909Z,11.89
2023-03-20T22:07:32.958Z,11.92
2023-03-20T22:10:18.340Z,11.91
2023-03-20T22:13:14.285Z,12.01
2023-03-20T22:15:54.165Z,11.97
2023-03-20T22:24:37.587Z,12.00
2023-03-20T22:30:04.738Z,11.87
2023-03-20T22:32:48.546Z,11.76
2023-03-20T22:35:51.656Z,11.94
2023-03-20T22:38:41.608Z,11.85
2023-03-20T22:46:41.873Z,24.47
2023-03-20T22:48:59.008Z,23.97
2023-03-20T22:51:34.174Z,23.89
2023-03-20T22:54:04.506Z,23.94
2023-03-20T22:56:32.989Z,23.70
2023-03-20T22:59:01.610Z,23.55
2023-03-20T23:01:31.405Z,24.05
2023-03-20T23:03:59.966Z,23.45
2023-03-20T23:06:28.655Z,23.59
2023-03-20T23:09:03.128Z,23.55
2023-03-20T23:11:34.108Z,23.31
2023-03-20T23:14:08.696Z,23.34
2023-03-20T23:16:41.789Z,23.90
2023-03-20T23:19:10.532Z,23.39
2023-03-20T23:21:41.560Z,24.15
2023-03-20T23:24:10.432Z,23.52
2023-03-20T23:26:38.827Z,23.42
2023-03-20T23:29:07.497Z,23.33
2023-03-20T23:31:35.882Z,23.28
2023-03-20T23:34:05.944Z,23.85
2023-03-20T23:36:37.243Z,23.33
2023-03-20T23:39:07.967Z,23.62
2023-03-20T23:42:04.716Z,23.30
2023-03-20T23:44:25.220Z,23.29
2023-03-20T23:46:54.828Z,23.05
2023-03-20T23:49:24.876Z,23.52
2023-03-20T23:51:53.327Z,23.02
2023-03-20T23:54:21.971Z,22.87
2023-03-20T23:56:50.765Z,22.95
2023-03-20T23:59:21.945Z,22.85
